Loring, Montana
Current Conditions -  °F | °C
As of 2:53 PM on Thursday 23 Oct 2014 (Local Time) from KGGW Reporting Station
Clear Clear  
Wind Chill: 66°   Ceiling: Unl
Heat Index: 66°   Visibility: 10mi
Dew Point: 37°   Wind: 10mph
Humidity: 34%   Direction: 270°W
Pressure: 29.76"   Gusts: NA
Location:  48.79°N, 107.86°W
Report Text: KGGW 232053Z AUTO 27009KT 10SM CLR 19/03 A2976 RMK AO2 SLP083 T01890028 56007
Loading
Personal Weather Stations






























Interactive Weather Map
Tropical Storm Tracking
New forecast layout! Learn more

10-Day Weather Forecast

Advertisements
Track Severe Weather on mobile